Time,TemperatureF,DewpointF,PressureIn,WindDirection,WindDirectionDegrees,WindSpeedMPH,WindSpeedGustMPH,Humidity,HourlyPrecipIn,Conditions,Clouds,dailyrainin,SoftwareType,DateUTC
2013-01-16 00:04:00,28.7,15.0,30.11,NW,318,4.0,-999.0,58,-99.99,,,0.00,weatherlink.com 1.10,2013-01-16 07:04:00,
2013-01-16 00:19:00,28.3,16.0,30.11,WNW,284,3.0,-999.0,60,-99.99,,,0.00,weatherlink.com 1.10,2013-01-16 07:19:00,
2013-01-16 00:34:00,28.9,17.0,30.12,WSW,248,4.0,-999.0,61,-99.99,,,0.00,weatherlink.com 1.10,2013-01-16 07:34:00,
2013-01-16 00:49:00,29.3,17.0,30.12,WNW,302,5.0,-999.0,60,-99.99,,,0.00,weatherlink.com 1.10,2013-01-16 07:49:00,
2013-01-16 01:04:00,30.1,17.0,30.11,West,280,3.0,-999.0,59,-99.99,,,0.00,weatherlink.com 1.10,2013-01-16 08:04:00,
2013-01-16 01:19:00,29.9,17.0,30.11,West,263,6.0,-999.0,59,-99.99,,,0.00,weatherlink.com 1.10,2013-01-16 08:19:00,
2013-01-16 01:34:00,30.4,17.0,30.12,West,269,2.0,-999.0,58,-99.99,,,0.00,weatherlink.com 1.10,2013-01-16 08:34:00,
2013-01-16 01:49:00,29.9,16.0,30.12,WNW,299,4.0,-999.0,57,-99.99,,,0.00,weatherlink.com 1.10,2013-01-16 08:49:00,
2013-01-16 02:04:00,28.7,15.0,30.13,WNW,291,4.0,-999.0,57,-99.99,,,0.00,weatherlink.com 1.10,2013-01-16 09:04:00,
2013-01-16 02:19:00,28.2,16.0,30.13,West,271,2.0,-999.0,60,-99.99,,,0.00,weatherlink.com 1.10,2013-01-16 09:19:00,
2013-01-16 02:34:00,28.8,16.0,30.14,West,259,6.0,-999.0,59,-99.99,,,0.00,weatherlink.com 1.10,2013-01-16 09:34:00,
2013-01-16 02:49:00,29.4,16.0,30.14,WSW,253,5.0,-999.0,57,-99.99,,,0.00,weatherlink.com 1.10,2013-01-16 09:49:00,
2013-01-16 03:04:00,29.3,16.0,30.14,West,270,1.0,-999.0,57,-99.99,,,0.00,weatherlink.com 1.10,2013-01-16 10:04:00,
2013-01-16 03:19:00,30.0,15.0,30.13,WNW,287,2.0,-999.0,55,-99.99,,,0.00,weatherlink.com 1.10,2013-01-16 10:19:00,
2013-01-16 03:34:00,30.6,15.0,30.13,West,269,1.0,-999.0,53,-99.99,,,0.00,weatherlink.com 1.10,2013-01-16 10:34:00,
2013-01-16 03:49:00,30.2,15.0,30.12,WSW,246,2.0,-999.0,53,-99.99,,,0.00,weatherlink.com 1.10,2013-01-16 10:49:00,
2013-01-16 04:04:00,28.7,15.0,30.13,WSW,239,1.0,-999.0,56,-99.99,,,0.00,weatherlink.com 1.10,2013-01-16 11:04:00,
2013-01-16 04:19:00,28.4,14.0,30.13,West,265,2.0,-999.0,56,-99.99,,,0.00,weatherlink.com 1.10,2013-01-16 11:19:00,
2013-01-16 04:34:00,28.6,15.0,30.13,WSW,246,5.0,-999.0,56,-99.99,,,0.00,weatherlink.com 1.10,2013-01-16 11:34:00,
2013-01-16 04:49:00,29.1,15.0,30.13,West,277,5.0,-999.0,55,-99.99,,,0.00,weatherlink.com 1.10,2013-01-16 11:49:00,
2013-01-16 05:04:00,30.4,15.0,30.13,West,277,1.0,-999.0,53,-99.99,,,0.00,weatherlink.com 1.10,2013-01-16 12:04:00,
2013-01-16 05:19:00,30.5,15.0,30.13,WNW,286,4.0,-999.0,53,-99.99,,,0.00,weatherlink.com 1.10,2013-01-16 12:19:00,
2013-01-16 05:34:00,29.9,15.0,30.14,WNW,292,4.0,-999.0,54,-99.99,,,0.00,weatherlink.com 1.10,2013-01-16 12:34:00,
2013-01-16 05:49:00,29.3,15.0,30.14,WSW,257,4.0,-999.0,55,-99.99,,,0.00,weatherlink.com 1.10,2013-01-16 12:49:00,
2013-01-16 06:04:00,30.1,16.0,30.15,WSW,257,4.0,-999.0,55,-99.99,,,0.00,weatherlink.com 1.10,2013-01-16 13:04:00,
2013-01-16 06:19:00,28.7,15.0,30.15,NE,34,1.0,-999.0,56,-99.99,,,0.00,weatherlink.com 1.10,2013-01-16 13:19:00,
2013-01-16 06:34:00,28.6,15.0,30.15,WSW,247,6.0,-999.0,57,-99.99,,,0.00,weatherlink.com 1.10,2013-01-16 13:34:00,
2013-01-16 06:49:00,29.7,16.0,30.15,WSW,250,6.0,-999.0,57,-99.99,,,0.00,weatherlink.com 1.10,2013-01-16 13:49:00,
2013-01-16 07:04:00,31.3,16.0,30.16,West,274,5.0,-999.0,54,-99.99,,,0.00,weatherlink.com 1.10,2013-01-16 14:04:00,
2013-01-16 07:19:00,29.1,15.0,30.16,SW,236,2.0,-999.0,57,-99.99,,,0.00,weatherlink.com 1.10,2013-01-16 14:19:00,
2013-01-16 07:34:00,29.0,16.0,30.16,West,267,5.0,-999.0,59,-99.99,,,0.00,weatherlink.com 1.10,2013-01-16 14:34:00,
2013-01-16 07:49:00,31.8,17.0,30.17,WSW,257,9.0,-999.0,55,-99.99,,,0.00,weatherlink.com 1.10,2013-01-16 14:49:00,
2013-01-16 08:04:00,33.8,18.0,30.17,WSW,252,10.0,-999.0,52,-99.99,,,0.00,weatherlink.com 1.10,2013-01-16 15:04:00,
2013-01-16 08:19:00,34.9,18.0,30.17,WSW,250,10.0,-999.0,51,-99.99,,,0.00,weatherlink.com 1.10,2013-01-16 15:19:00,
2013-01-16 08:34:00,35.6,18.0,30.18,WSW,244,9.0,-999.0,50,-99.99,,,0.00,weatherlink.com 1.10,2013-01-16 15:34:00,
2013-01-16 08:49:00,37.6,19.0,30.18,WSW,245,7.0,-999.0,48,-99.99,,,0.00,weatherlink.com 1.10,2013-01-16 15:49:00,
2013-01-16 09:04:00,40.0,21.0,30.18,SW,230,5.0,-999.0,46,-99.99,,,0.00,weatherlink.com 1.10,2013-01-16 16:04:00,
2013-01-16 09:19:00,41.2,22.0,30.19,SSW,194,6.0,-999.0,46,-99.99,,,0.00,weatherlink.com 1.10,2013-01-16 16:19:00,
2013-01-16 09:34:00,42.8,20.0,30.19,SW,226,9.0,-999.0,41,-99.99,,,0.00,weatherlink.com 1.10,2013-01-16 16:34:00,
2013-01-16 09:49:00,43.3,22.0,30.19,East,87,2.0,-999.0,43,-99.99,,,0.00,weatherlink.com 1.10,2013-01-16 16:49:00,
2013-01-16 10:04:00,41.8,22.0,30.19,NNE,30,4.0,-999.0,46,-99.99,,,0.00,weatherlink.com 1.10,2013-01-16 17:04:00,
2013-01-16 10:19:00,41.3,21.0,30.19,NNE,13,0.0,-999.0,44,-99.99,,,0.00,weatherlink.com 1.10,2013-01-16 17:19:00,
2013-01-16 10:34:00,42.0,22.0,30.19,East,92,3.0,-999.0,45,-99.99,,,0.00,weatherlink.com 1.10,2013-01-16 17:34:00,
2013-01-16 10:49:00,42.9,24.0,30.18,SE,130,4.0,-999.0,47,-99.99,,,0.00,weatherlink.com 1.10,2013-01-16 17:49:00,
2013-01-16 11:04:00,43.3,23.0,30.18,SE,139,2.0,-999.0,45,-99.99,,,0.00,weatherlink.com 1.10,2013-01-16 18:04:00,
2013-01-16 11:19:00,43.7,24.0,30.18,SSE,167,2.0,-999.0,46,-99.99,,,0.00,weatherlink.com 1.10,2013-01-16 18:19:00,
2013-01-16 11:34:00,44.3,22.0,30.18,SE,136,2.0,-999.0,41,-99.99,,,0.00,weatherlink.com 1.10,2013-01-16 18:34:00,
2013-01-16 11:49:00,45.3,21.0,30.18,SE,129,0.0,-999.0,39,-99.99,,,0.00,weatherlink.com 1.10,2013-01-16 18:49:00,
2013-01-16 12:04:00,46.5,23.0,30.18,SE,137,3.0,-999.0,40,-99.99,,,0.00,weatherlink.com 1.10,2013-01-16 19:04:00,
2013-01-16 12:19:00,47.1,22.0,30.17,ENE,75,0.0,-999.0,38,-99.99,,,0.00,weatherlink.com 1.10,2013-01-16 19:19:00,
2013-01-16 12:34:00,47.8,22.0,30.17,NE,48,2.0,-999.0,36,-99.99,,,0.00,weatherlink.com 1.10,2013-01-16 19:34:00,
2013-01-16 12:49:00,48.4,22.0,30.17,SE,128,5.0,-999.0,36,-99.99,,,0.00,weatherlink.com 1.10,2013-01-16 19:49:00,
2013-01-16 13:04:00,49.2,22.0,30.16,SSE,148,3.0,-999.0,34,-99.99,,,0.00,weatherlink.com 1.10,2013-01-16 20:04:00,
2013-01-16 13:19:00,49.7,21.0,30.17,ESE,119,3.0,-999.0,32,-99.99,,,0.00,weatherlink.com 1.10,2013-01-16 20:19:00,
2013-01-16 13:34:00,49.8,22.0,30.17,SSE,159,5.0,-999.0,33,-99.99,,,0.00,weatherlink.com 1.10,2013-01-16 20:34:00,
2013-01-16 13:49:00,49.8,22.0,30.17,SSE,164,2.0,-999.0,33,-99.99,,,0.00,weatherlink.com 1.10,2013-01-16 20:49:00,
2013-01-16 14:04:00,50.2,20.0,30.17,SE,137,7.0,-999.0,31,-99.99,,,0.00,weatherlink.com 1.10,2013-01-16 21:04:00,
2013-01-16 14:19:00,49.9,20.0,30.18,SE,142,4.0,-999.0,31,-99.99,,,0.00,weatherlink.com 1.10,2013-01-16 21:19:00,
2013-01-16 14:34:00,50.3,21.0,30.18,SE,135,6.0,-999.0,31,-99.99,,,0.00,weatherlink.com 1.10,2013-01-16 21:34:00,
2013-01-16 14:49:00,50.2,20.0,30.18,SE,130,9.0,-999.0,31,-99.99,,,0.00,weatherlink.com 1.10,2013-01-16 21:49:00,
2013-01-16 15:04:00,50.0,20.0,30.19,SE,128,5.0,-999.0,31,-99.99,,,0.00,weatherlink.com 1.10,2013-01-16 22:04:00,
2013-01-16 15:19:00,49.7,20.0,30.20,SSE,147,6.0,-999.0,31,-99.99,,,0.00,weatherlink.com 1.10,2013-01-16 22:19:00,
2013-01-16 15:34:00,49.5,20.0,30.20,ESE,122,5.0,-999.0,31,-99.99,,,0.00,weatherlink.com 1.10,2013-01-16 22:34:00,
2013-01-16 15:49:00,49.1,21.0,30.20,ESE,111,4.0,-999.0,33,-99.99,,,0.00,weatherlink.com 1.10,2013-01-16 22:49:00,
2013-01-16 16:04:00,48.2,23.0,30.21,East,96,3.0,-999.0,37,-99.99,,,0.00,weatherlink.com 1.10,2013-01-16 23:04:00,
2013-01-16 16:19:00,47.0,22.0,30.22,East,91,3.0,-999.0,38,-99.99,,,0.00,weatherlink.com 1.10,2013-01-16 23:19:00,
2013-01-16 16:34:00,46.0,23.0,30.22,East,87,2.0,-999.0,41,-99.99,,,0.00,weatherlink.com 1.10,2013-01-16 23:34:00,
2013-01-16 16:49:00,43.9,23.0,30.23,East,82,2.0,-999.0,44,-99.99,,,0.00,weatherlink.com 1.10,2013-01-16 23:49:00,
2013-01-16 17:04:00,42.5,22.0,30.23,WSW,241,4.0,-999.0,45,-99.99,,,0.00,weatherlink.com 1.10,2013-01-17 00:04:00,
2013-01-16 17:19:00,41.8,22.0,30.24,WSW,246,5.0,-999.0,46,-99.99,,,0.00,weatherlink.com 1.10,2013-01-17 00:19:00,
2013-01-16 17:34:00,39.6,21.0,30.25,West,273,3.0,-999.0,48,-99.99,,,0.00,weatherlink.com 1.10,2013-01-17 00:34:00,
2013-01-16 17:49:00,38.4,21.0,30.25,West,273,3.0,-999.0,50,-99.99,,,0.00,weatherlink.com 1.10,2013-01-17 00:49:00,
2013-01-16 18:04:00,38.0,21.0,30.26,West,262,3.0,-999.0,51,-99.99,,,0.00,weatherlink.com 1.10,2013-01-17 01:04:00,
2013-01-16 18:19:00,38.0,21.0,30.26,WSW,257,2.0,-999.0,50,-99.99,,,0.00,weatherlink.com 1.10,2013-01-17 01:19:00,
2013-01-16 18:34:00,37.0,20.0,30.27,West,264,6.0,-999.0,51,-99.99,,,0.00,weatherlink.com 1.10,2013-01-17 01:34:00,
2013-01-16 18:49:00,37.3,20.0,30.27,WSW,250,6.0,-999.0,50,-99.99,,,0.00,weatherlink.com 1.10,2013-01-17 01:49:00,
2013-01-16 19:04:00,36.4,20.0,30.27,West,259,6.0,-999.0,51,-99.99,,,0.00,weatherlink.com 1.10,2013-01-17 02:04:00,
2013-01-16 19:19:00,35.9,20.0,30.28,West,260,6.0,-999.0,52,-99.99,,,0.00,weatherlink.com 1.10,2013-01-17 02:19:00,
2013-01-16 19:34:00,35.5,19.0,30.29,WSW,248,7.0,-999.0,52,-99.99,,,0.00,weatherlink.com 1.10,2013-01-17 02:34:00,
2013-01-16 19:50:00,35.1,19.0,30.29,WSW,239,8.0,-999.0,52,-99.99,,,0.00,weatherlink.com 1.10,2013-01-17 02:50:00,
2013-01-16 20:04:00,34.2,19.0,30.30,WSW,242,5.0,-999.0,54,-99.99,,,0.00,weatherlink.com 1.10,2013-01-17 03:04:00,
2013-01-16 20:19:00,33.7,19.0,30.30,WSW,238,7.0,-999.0,55,-99.99,,,0.00,weatherlink.com 1.10,2013-01-17 03:19:00,
2013-01-16 20:34:00,33.1,19.0,30.31,WSW,249,9.0,-999.0,57,-99.99,,,0.00,weatherlink.com 1.10,2013-01-17 03:34:00,
2013-01-16 20:49:00,33.6,19.0,30.31,WSW,242,6.0,-999.0,55,-99.99,,,0.00,weatherlink.com 1.10,2013-01-17 03:49:00,
2013-01-16 21:04:00,33.0,19.0,30.32,SW,234,5.0,-999.0,57,-99.99,,,0.00,weatherlink.com 1.10,2013-01-17 04:04:00,
2013-01-16 21:19:00,33.3,19.0,30.31,WSW,240,6.0,-999.0,57,-99.99,,,0.00,weatherlink.com 1.10,2013-01-17 04:19:00,
2013-01-16 21:34:00,33.3,19.0,30.32,WSW,244,5.0,-999.0,56,-99.99,,,0.00,weatherlink.com 1.10,2013-01-17 04:34:00,
2013-01-16 21:49:00,33.2,19.0,30.32,WSW,245,4.0,-999.0,57,-99.99,,,0.00,weatherlink.com 1.10,2013-01-17 04:49:00,
2013-01-16 22:04:00,33.2,18.0,30.31,WSW,252,6.0,-999.0,54,-99.99,,,0.00,weatherlink.com 1.10,2013-01-17 05:04:00,
2013-01-16 22:19:00,33.7,18.0,30.32,WSW,246,7.0,-999.0,52,-99.99,,,0.00,weatherlink.com 1.10,2013-01-17 05:19:00,
2013-01-16 22:34:00,33.4,18.0,30.32,WSW,254,10.0,-999.0,53,-99.99,,,0.00,weatherlink.com 1.10,2013-01-17 05:34:00,
2013-01-16 22:49:00,32.9,18.0,30.32,West,267,7.0,-999.0,55,-99.99,,,0.00,weatherlink.com 1.10,2013-01-17 05:49:00,
2013-01-16 23:04:00,33.3,18.0,30.32,West,261,7.0,-999.0,53,-99.99,,,0.00,weatherlink.com 1.10,2013-01-17 06:04:00,
2013-01-16 23:19:00,33.2,18.0,30.32,WSW,253,6.0,-999.0,53,-99.99,,,0.00,weatherlink.com 1.10,2013-01-17 06:19:00,
2013-01-16 23:34:00,32.2,18.0,30.33,West,269,4.0,-999.0,55,-99.99,,,0.00,weatherlink.com 1.10,2013-01-17 06:34:00,
2013-01-16 23:49:00,32.3,17.0,30.33,West,269,5.0,-999.0,54,-99.99,,,0.00,weatherlink.com 1.10,2013-01-17 06:49:00,